sensor_id;sensor_type;location;lat;lon;timestamp;temperature;humidity
46366;DHT22;32073;49.166;8.076;2022-08-07T00:02:55;22.40;30.80
46366;DHT22;32073;49.166;8.076;2022-08-07T00:06:56;22.30;30.90
46366;DHT22;32073;49.166;8.076;2022-08-07T00:10:57;22.30;30.90
46366;DHT22;32073;49.166;8.076;2022-08-07T00:14:57;22.30;31.00
46366;DHT22;32073;49.166;8.076;2022-08-07T00:18:58;22.20;31.00
46366;DHT22;32073;49.166;8.076;2022-08-07T00:22:59;22.20;31.00
46366;DHT22;32073;49.166;8.076;2022-08-07T00:26:59;22.20;31.10
46366;DHT22;32073;49.166;8.076;2022-08-07T00:31:06;22.10;31.10
46366;DHT22;32073;49.166;8.076;2022-08-07T00:35:08;22.10;31.30
46366;DHT22;32073;49.166;8.076;2022-08-07T00:39:11;22.00;31.30
46366;DHT22;32073;49.166;8.076;2022-08-07T00:43:12;22.10;31.40
46366;DHT22;32073;49.166;8.076;2022-08-07T00:47:13;21.90;31.40
46366;DHT22;32073;49.166;8.076;2022-08-07T00:51:15;21.90;31.50
46366;DHT22;32073;49.166;8.076;2022-08-07T00:55:16;21.90;31.50
46366;DHT22;32073;49.166;8.076;2022-08-07T00:59:18;21.80;31.60
46366;DHT22;32073;49.166;8.076;2022-08-07T01:03:18;21.80;31.60
46366;DHT22;32073;49.166;8.076;2022-08-07T01:07:22;21.80;31.70
46366;DHT22;32073;49.166;8.076;2022-08-07T01:11:23;21.80;31.90
46366;DHT22;32073;49.166;8.076;2022-08-07T01:15:24;21.70;31.80
46366;DHT22;32073;49.166;8.076;2022-08-07T01:19:26;21.60;31.80
46366;DHT22;32073;49.166;8.076;2022-08-07T01:23:29;21.60;31.90
46366;DHT22;32073;49.166;8.076;2022-08-07T01:27:31;21.50;31.90
46366;DHT22;32073;49.166;8.076;2022-08-07T01:31:32;21.50;31.90
46366;DHT22;32073;49.166;8.076;2022-08-07T01:35:33;21.50;32.00
46366;DHT22;32073;49.166;8.076;2022-08-07T01:39:34;21.40;32.00
46366;DHT22;32073;49.166;8.076;2022-08-07T01:43:35;21.40;32.10
46366;DHT22;32073;49.166;8.076;2022-08-07T01:47:35;21.40;32.20
46366;DHT22;32073;49.166;8.076;2022-08-07T01:51:37;21.30;32.20
46366;DHT22;32073;49.166;8.076;2022-08-07T01:55:47;21.30;32.30
46366;DHT22;32073;49.166;8.076;2022-08-07T02:00:08;21.20;32.50
46366;DHT22;32073;49.166;8.076;2022-08-07T02:04:18;21.20;32.60
46366;DHT22;32073;49.166;8.076;2022-08-07T02:08:25;21.20;32.60
46366;DHT22;32073;49.166;8.076;2022-08-07T02:12:30;21.20;32.60
46366;DHT22;32073;49.166;8.076;2022-08-07T02:16:35;21.10;32.80
46366;DHT22;32073;49.166;8.076;2022-08-07T02:20:37;21.10;32.80
46366;DHT22;32073;49.166;8.076;2022-08-07T02:24:43;21.00;32.80
46366;DHT22;32073;49.166;8.076;2022-08-07T02:28:46;21.00;33.00
46366;DHT22;32073;49.166;8.076;2022-08-07T02:32:48;21.00;33.00
46366;DHT22;32073;49.166;8.076;2022-08-07T02:36:51;20.90;33.00
46366;DHT22;32073;49.166;8.076;2022-08-07T02:40:52;20.90;33.00
46366;DHT22;32073;49.166;8.076;2022-08-07T02:44:54;20.90;33.20
46366;DHT22;32073;49.166;8.076;2022-08-07T02:48:56;20.80;33.30
46366;DHT22;32073;49.166;8.076;2022-08-07T02:53:08;20.70;33.20
46366;DHT22;32073;49.166;8.076;2022-08-07T02:57:12;20.70;33.50
46366;DHT22;32073;49.166;8.076;2022-08-07T03:01:14;20.70;33.40
46366;DHT22;32073;49.166;8.076;2022-08-07T03:05:16;20.60;33.50
46366;DHT22;32073;49.166;8.076;2022-08-07T03:09:17;20.50;33.50
46366;DHT22;32073;49.166;8.076;2022-08-07T03:13:19;20.50;33.50
46366;DHT22;32073;49.166;8.076;2022-08-07T03:17:20;20.50;33.60
46366;DHT22;32073;49.166;8.076;2022-08-07T03:21:25;20.40;33.60
46366;DHT22;32073;49.166;8.076;2022-08-07T03:25:28;20.40;33.80
46366;DHT22;32073;49.166;8.076;2022-08-07T03:30:00;20.30;33.80
46366;DHT22;32073;49.166;8.076;2022-08-07T03:34:02;20.30;33.80
46366;DHT22;32073;49.166;8.076;2022-08-07T03:38:07;20.30;33.90
46366;DHT22;32073;49.166;8.076;2022-08-07T03:42:09;20.20;34.00
46366;DHT22;32073;49.166;8.076;2022-08-07T03:46:10;20.10;34.00
46366;DHT22;32073;49.166;8.076;2022-08-07T03:50:16;20.10;34.20
46366;DHT22;32073;49.166;8.076;2022-08-07T03:54:19;20.10;34.30
46366;DHT22;32073;49.166;8.076;2022-08-07T03:58:22;20.00;34.30
46366;DHT22;32073;49.166;8.076;2022-08-07T04:02:25;20.00;34.50
46366;DHT22;32073;49.166;8.076;2022-08-07T04:06:26;19.90;34.40
46366;DHT22;32073;49.166;8.076;2022-08-07T04:11:11;19.90;34.60
46366;DHT22;32073;49.166;8.076;2022-08-07T04:15:12;19.90;34.40
46366;DHT22;32073;49.166;8.076;2022-08-07T04:19:13;19.80;34.60
46366;DHT22;32073;49.166;8.076;2022-08-07T04:23:14;19.80;34.70
46366;DHT22;32073;49.166;8.076;2022-08-07T04:27:16;19.80;34.80
46366;DHT22;32073;49.166;8.076;2022-08-07T04:31:18;19.80;35.00
46366;DHT22;32073;49.166;8.076;2022-08-07T04:35:23;19.70;35.00
46366;DHT22;32073;49.166;8.076;2022-08-07T04:39:23;19.70;35.10
46366;DHT22;32073;49.166;8.076;2022-08-07T04:43:30;19.70;35.10
46366;DHT22;32073;49.166;8.076;2022-08-07T04:47:58;19.70;35.30
46366;DHT22;32073;49.166;8.076;2022-08-07T04:52:20;19.70;35.50
46366;DHT22;32073;49.166;8.076;2022-08-07T04:56:56;19.70;35.60
46366;DHT22;32073;49.166;8.076;2022-08-07T05:10:23;20.90;37.00
46366;DHT22;32073;49.166;8.076;2022-08-07T05:14:35;21.70;36.60
46366;DHT22;32073;49.166;8.076;2022-08-07T05:18:53;22.40;36.50
46366;DHT22;32073;49.166;8.076;2022-08-07T05:23:00;23.10;35.80
46366;DHT22;32073;49.166;8.076;2022-08-07T05:27:07;23.60;35.40
46366;DHT22;32073;49.166;8.076;2022-08-07T05:31:10;24.10;34.90
46366;DHT22;32073;49.166;8.076;2022-08-07T05:35:13;24.50;34.40
46366;DHT22;32073;49.166;8.076;2022-08-07T05:39:16;24.60;34.00
46366;DHT22;32073;49.166;8.076;2022-08-07T05:43:21;24.70;33.60
46366;DHT22;32073;49.166;8.076;2022-08-07T05:47:22;24.70;33.30
46366;DHT22;32073;49.166;8.076;2022-08-07T05:51:24;24.60;33.00
46366;DHT22;32073;49.166;8.076;2022-08-07T05:55:25;24.40;32.80
46366;DHT22;32073;49.166;8.076;2022-08-07T05:59:26;24.10;32.60
46366;DHT22;32073;49.166;8.076;2022-08-07T06:03:29;23.80;32.60
46366;DHT22;32073;49.166;8.076;2022-08-07T06:07:33;23.40;32.70
46366;DHT22;32073;49.166;8.076;2022-08-07T06:11:34;23.10;33.00
46366;DHT22;32073;49.166;8.076;2022-08-07T06:15:35;22.90;33.20
46366;DHT22;32073;49.166;8.076;2022-08-07T06:19:37;22.60;33.40
46366;DHT22;32073;49.166;8.076;2022-08-07T06:23:39;22.50;33.60
46366;DHT22;32073;49.166;8.076;2022-08-07T06:27:40;22.30;33.80
46366;DHT22;32073;49.166;8.076;2022-08-07T06:31:41;22.20;34.00
46366;DHT22;32073;49.166;8.076;2022-08-07T06:35:42;22.10;34.10
46366;DHT22;32073;49.166;8.076;2022-08-07T06:39:42;22.00;34.20
46366;DHT22;32073;49.166;8.076;2022-08-07T06:43:44;22.00;34.40
46366;DHT22;32073;49.166;8.076;2022-08-07T06:47:46;22.00;34.70
46366;DHT22;32073;49.166;8.076;2022-08-07T06:51:51;22.00;34.70
46366;DHT22;32073;49.166;8.076;2022-08-07T06:55:53;22.00;34.90
46366;DHT22;32073;49.166;8.076;2022-08-07T06:59:55;22.10;35.00
46366;DHT22;32073;49.166;8.076;2022-08-07T07:04:01;22.10;34.80
46366;DHT22;32073;49.166;8.076;2022-08-07T07:08:12;22.20;35.10
46366;DHT22;32073;49.166;8.076;2022-08-07T07:12:48;22.20;35.00
46366;DHT22;32073;49.166;8.076;2022-08-07T07:16:54;22.20;35.00
46366;DHT22;32073;49.166;8.076;2022-08-07T07:21:07;22.30;35.20
46366;DHT22;32073;49.166;8.076;2022-08-07T07:25:12;22.30;35.10
46366;DHT22;32073;49.166;8.076;2022-08-07T07:29:15;22.40;35.30
46366;DHT22;32073;49.166;8.076;2022-08-07T07:33:18;22.50;35.60
46366;DHT22;32073;49.166;8.076;2022-08-07T07:37:23;22.50;35.60
46366;DHT22;32073;49.166;8.076;2022-08-07T07:41:25;22.50;35.60
46366;DHT22;32073;49.166;8.076;2022-08-07T07:45:28;22.60;35.70
46366;DHT22;32073;49.166;8.076;2022-08-07T07:49:41;22.60;35.80
46366;DHT22;32073;49.166;8.076;2022-08-07T07:53:44;22.70;35.90
46366;DHT22;32073;49.166;8.076;2022-08-07T07:57:48;22.70;36.00
46366;DHT22;32073;49.166;8.076;2022-08-07T08:01:50;22.80;36.10
46366;DHT22;32073;49.166;8.076;2022-08-07T08:05:51;22.90;36.20
46366;DHT22;32073;49.166;8.076;2022-08-07T08:09:53;22.90;36.30
46366;DHT22;32073;49.166;8.076;2022-08-07T08:14:19;22.90;36.50
46366;DHT22;32073;49.166;8.076;2022-08-07T08:18:24;23.00;36.50
46366;DHT22;32073;49.166;8.076;2022-08-07T08:22:27;23.00;36.70
46366;DHT22;32073;49.166;8.076;2022-08-07T08:26:49;23.10;36.90
46366;DHT22;32073;49.166;8.076;2022-08-07T08:31:19;23.10;36.90
46366;DHT22;32073;49.166;8.076;2022-08-07T08:35:28;23.20;37.30
46366;DHT22;32073;49.166;8.076;2022-08-07T08:39:34;23.20;37.30
46366;DHT22;32073;49.166;8.076;2022-08-07T08:43:44;23.30;37.40
46366;DHT22;32073;49.166;8.076;2022-08-07T08:48:05;23.40;37.60
46366;DHT22;32073;49.166;8.076;2022-08-07T08:52:37;23.40;37.50
46366;DHT22;32073;49.166;8.076;2022-08-07T08:56:43;23.50;38.20
46366;DHT22;32073;49.166;8.076;2022-08-07T09:00:51;23.50;37.50
46366;DHT22;32073;49.166;8.076;2022-08-07T09:09:11;23.70;37.80
46366;DHT22;32073;49.166;8.076;2022-08-07T09:13:36;23.70;37.60
46366;DHT22;32073;49.166;8.076;2022-08-07T09:17:47;23.80;37.70
46366;DHT22;32073;49.166;8.076;2022-08-07T09:22:10;23.90;37.90
46366;DHT22;32073;49.166;8.076;2022-08-07T09:26:45;24.00;37.80
46366;DHT22;32073;49.166;8.076;2022-08-07T09:44:33;24.40;37.80
46366;DHT22;32073;49.166;8.076;2022-08-07T09:53:20;24.60;37.50
46366;DHT22;32073;49.166;8.076;2022-08-07T09:58:07;24.60;37.50
46366;DHT22;32073;49.166;8.076;2022-08-07T10:02:38;24.70;37.30
46366;DHT22;32073;49.166;8.076;2022-08-07T10:07:28;24.90;37.40
46366;DHT22;32073;49.166;8.076;2022-08-07T10:20:26;25.20;37.00
46366;DHT22;32073;49.166;8.076;2022-08-07T10:29:33;25.30;37.50
46366;DHT22;32073;49.166;8.076;2022-08-07T10:33:59;25.40;36.60
46366;DHT22;32073;49.166;8.076;2022-08-07T10:42:39;25.70;36.40
46366;DHT22;32073;49.166;8.076;2022-08-07T11:15:32;24.30;37.60
46366;DHT22;32073;49.166;8.076;2022-08-07T11:19:49;24.30;37.90
46366;DHT22;32073;49.166;8.076;2022-08-07T11:24:38;24.70;37.40
46366;DHT22;32073;49.166;8.076;2022-08-07T11:29:00;25.20;36.80
46366;DHT22;32073;49.166;8.076;2022-08-07T11:42:17;26.20;35.90
46366;DHT22;32073;49.166;8.076;2022-08-07T12:10:24;27.20;33.10
46366;DHT22;32073;49.166;8.076;2022-08-07T12:14:55;27.30;32.70
46366;DHT22;32073;49.166;8.076;2022-08-07T12:19:10;27.40;33.40
46366;DHT22;32073;49.166;8.076;2022-08-07T12:27:49;27.60;33.50
46366;DHT22;32073;49.166;8.076;2022-08-07T12:46:07;27.10;34.30
46366;DHT22;32073;49.166;8.076;2022-08-07T12:50:33;26.80;34.60
46366;DHT22;32073;49.166;8.076;2022-08-07T12:59:07;27.30;33.30
46366;DHT22;32073;49.166;8.076;2022-08-07T13:08:30;27.70;33.00
46366;DHT22;32073;49.166;8.076;2022-08-07T13:17:23;28.00;32.60
46366;DHT22;32073;49.166;8.076;2022-08-07T13:21:58;28.10;32.50
46366;DHT22;32073;49.166;8.076;2022-08-07T13:26:20;28.30;32.90
46366;DHT22;32073;49.166;8.076;2022-08-07T13:30:26;28.30;32.40
46366;DHT22;32073;49.166;8.076;2022-08-07T13:34:59;28.40;32.30
46366;DHT22;32073;49.166;8.076;2022-08-07T13:43:27;28.50;32.40
46366;DHT22;32073;49.166;8.076;2022-08-07T13:47:29;28.50;31.90
46366;DHT22;32073;49.166;8.076;2022-08-07T13:51:32;28.50;31.80
46366;DHT22;32073;49.166;8.076;2022-08-07T13:55:34;28.60;31.70
46366;DHT22;32073;49.166;8.076;2022-08-07T13:59:42;28.60;31.30
46366;DHT22;32073;49.166;8.076;2022-08-07T14:03:44;28.70;30.90
46366;DHT22;32073;49.166;8.076;2022-08-07T14:07:47;28.80;31.00
46366;DHT22;32073;49.166;8.076;2022-08-07T14:11:52;28.80;30.90
46366;DHT22;32073;49.166;8.076;2022-08-07T14:15:59;28.80;30.90
46366;DHT22;32073;49.166;8.076;2022-08-07T14:20:16;28.90;30.70
46366;DHT22;32073;49.166;8.076;2022-08-07T14:24:21;28.90;30.60
46366;DHT22;32073;49.166;8.076;2022-08-07T14:28:27;28.90;30.80
46366;DHT22;32073;49.166;8.076;2022-08-07T14:32:37;28.90;30.30
46366;DHT22;32073;49.166;8.076;2022-08-07T14:36:42;29.00;30.30
46366;DHT22;32073;49.166;8.076;2022-08-07T14:40:44;29.10;30.30
46366;DHT22;32073;49.166;8.076;2022-08-07T14:44:46;29.00;30.00
46366;DHT22;32073;49.166;8.076;2022-08-07T14:48:52;29.10;30.00
46366;DHT22;32073;49.166;8.076;2022-08-07T14:52:55;29.10;29.90
46366;DHT22;32073;49.166;8.076;2022-08-07T14:56:57;29.20;29.90
46366;DHT22;32073;49.166;8.076;2022-08-07T15:01:00;29.20;29.80
46366;DHT22;32073;49.166;8.076;2022-08-07T15:05:03;29.20;29.70
46366;DHT22;32073;49.166;8.076;2022-08-07T15:09:10;29.20;29.60
46366;DHT22;32073;49.166;8.076;2022-08-07T15:13:16;29.30;29.50
46366;DHT22;32073;49.166;8.076;2022-08-07T15:17:27;29.30;30.20
46366;DHT22;32073;49.166;8.076;2022-08-07T15:21:35;29.30;29.20
46366;DHT22;32073;49.166;8.076;2022-08-07T15:25:38;29.30;29.20
46366;DHT22;32073;49.166;8.076;2022-08-07T15:29:41;29.30;29.00
46366;DHT22;32073;49.166;8.076;2022-08-07T15:33:45;29.30;28.90
46366;DHT22;32073;49.166;8.076;2022-08-07T15:37:57;29.30;28.90
46366;DHT22;32073;49.166;8.076;2022-08-07T15:42:02;29.30;28.70
46366;DHT22;32073;49.166;8.076;2022-08-07T15:46:18;29.40;28.60
46366;DHT22;32073;49.166;8.076;2022-08-07T15:50:27;29.40;28.40
46366;DHT22;32073;49.166;8.076;2022-08-07T15:54:38;29.40;28.30
46366;DHT22;32073;49.166;8.076;2022-08-07T16:02:44;29.30;28.30
46366;DHT22;32073;49.166;8.076;2022-08-07T16:06:51;29.30;28.20
46366;DHT22;32073;49.166;8.076;2022-08-07T16:11:04;29.30;28.30
46366;DHT22;32073;49.166;8.076;2022-08-07T16:24:32;29.30;27.90
46366;DHT22;32073;49.166;8.076;2022-08-07T16:33:12;29.30;28.00
46366;DHT22;32073;49.166;8.076;2022-08-07T16:55:38;29.10;27.80
46366;DHT22;32073;49.166;8.076;2022-08-07T17:00:10;29.10;28.00
46366;DHT22;32073;49.166;8.076;2022-08-07T17:04:42;29.00;27.70
46366;DHT22;32073;49.166;8.076;2022-08-07T17:18:15;28.90;27.80
46366;DHT22;32073;49.166;8.076;2022-08-07T17:22:29;28.90;28.10
46366;DHT22;32073;49.166;8.076;2022-08-07T17:31:14;28.80;27.80
46366;DHT22;32073;49.166;8.076;2022-08-07T17:35:22;28.80;27.80
46366;DHT22;32073;49.166;8.076;2022-08-07T17:44:13;28.60;27.60
46366;DHT22;32073;49.166;8.076;2022-08-07T17:48:32;28.60;27.60
46366;DHT22;32073;49.166;8.076;2022-08-07T17:53:08;28.60;27.70
46366;DHT22;32073;49.166;8.076;2022-08-07T18:02:00;28.60;27.90
46366;DHT22;32073;49.166;8.076;2022-08-07T18:06:12;28.50;27.80
46366;DHT22;32073;49.166;8.076;2022-08-07T18:10:24;28.50;27.70
46366;DHT22;32073;49.166;8.076;2022-08-07T18:19:06;28.40;27.80
46366;DHT22;32073;49.166;8.076;2022-08-07T18:23:10;28.40;27.90
46366;DHT22;32073;49.166;8.076;2022-08-07T18:41:18;28.00;27.80
46366;DHT22;32073;49.166;8.076;2022-08-07T18:45:53;27.80;27.70
46366;DHT22;32073;49.166;8.076;2022-08-07T18:50:58;27.80;27.80
46366;DHT22;32073;49.166;8.076;2022-08-07T19:04:35;27.40;27.90
46366;DHT22;32073;49.166;8.076;2022-08-07T19:17:14;27.10;28.00
46366;DHT22;32073;49.166;8.076;2022-08-07T19:25:51;26.90;28.10
46366;DHT22;32073;49.166;8.076;2022-08-07T19:29:59;26.80;28.10
46366;DHT22;32073;49.166;8.076;2022-08-07T19:34:01;26.70;28.20
46366;DHT22;32073;49.166;8.076;2022-08-07T19:38:09;26.60;28.20
46366;DHT22;32073;49.166;8.076;2022-08-07T19:42:11;26.50;28.20
46366;DHT22;32073;49.166;8.076;2022-08-07T19:46:21;26.50;28.30
46366;DHT22;32073;49.166;8.076;2022-08-07T19:50:24;26.40;28.80
46366;DHT22;32073;49.166;8.076;2022-08-07T19:54:26;26.30;28.20
46366;DHT22;32073;49.166;8.076;2022-08-07T19:58:29;26.20;28.20
46366;DHT22;32073;49.166;8.076;2022-08-07T20:02:41;26.20;28.30
46366;DHT22;32073;49.166;8.076;2022-08-07T20:06:46;26.10;28.50
46366;DHT22;32073;49.166;8.076;2022-08-07T20:10:53;26.00;28.40
46366;DHT22;32073;49.166;8.076;2022-08-07T20:14:57;26.00;28.40
46366;DHT22;32073;49.166;8.076;2022-08-07T20:19:04;25.90;28.40
46366;DHT22;32073;49.166;8.076;2022-08-07T20:23:10;25.80;28.50
46366;DHT22;32073;49.166;8.076;2022-08-07T20:27:14;25.80;28.50
46366;DHT22;32073;49.166;8.076;2022-08-07T20:31:16;25.70;28.50
46366;DHT22;32073;49.166;8.076;2022-08-07T20:35:18;25.70;28.50
46366;DHT22;32073;49.166;8.076;2022-08-07T20:39:25;25.70;28.60
46366;DHT22;32073;49.166;8.076;2022-08-07T20:43:31;25.60;28.60
46366;DHT22;32073;49.166;8.076;2022-08-07T20:47:34;25.50;28.50
46366;DHT22;32073;49.166;8.076;2022-08-07T20:51:40;25.40;28.50
46366;DHT22;32073;49.166;8.076;2022-08-07T20:55:47;25.40;28.60
46366;DHT22;32073;49.166;8.076;2022-08-07T20:59:51;25.30;28.50
46366;DHT22;32073;49.166;8.076;2022-08-07T21:04:02;25.30;28.50
46366;DHT22;32073;49.166;8.076;2022-08-07T21:08:11;25.30;28.50
46366;DHT22;32073;49.166;8.076;2022-08-07T21:12:14;25.20;28.60
46366;DHT22;32073;49.166;8.076;2022-08-07T21:16:16;25.20;28.60
46366;DHT22;32073;49.166;8.076;2022-08-07T21:20:20;25.20;28.70
46366;DHT22;32073;49.166;8.076;2022-08-07T21:29:20;25.10;28.60
46366;DHT22;32073;49.166;8.076;2022-08-07T21:37:55;25.00;28.60
46366;DHT22;32073;49.166;8.076;2022-08-07T21:46:47;24.90;28.60
46366;DHT22;32073;49.166;8.076;2022-08-07T21:55:46;24.90;28.80
46366;DHT22;32073;49.166;8.076;2022-08-07T22:00:17;24.90;28.80
46366;DHT22;32073;49.166;8.076;2022-08-07T22:04:26;24.80;28.80
46366;DHT22;32073;49.166;8.076;2022-08-07T22:08:51;24.90;28.80
46366;DHT22;32073;49.166;8.076;2022-08-07T22:13:02;24.70;28.70
46366;DHT22;32073;49.166;8.076;2022-08-07T22:17:06;24.70;28.80
46366;DHT22;32073;49.166;8.076;2022-08-07T22:25:38;24.60;28.80
46366;DHT22;32073;49.166;8.076;2022-08-07T22:29:51;24.60;28.90
46366;DHT22;32073;49.166;8.076;2022-08-07T22:38:50;24.60;28.90
46366;DHT22;32073;49.166;8.076;2022-08-07T22:43:42;24.50;29.00
46366;DHT22;32073;49.166;8.076;2022-08-07T22:48:22;24.50;28.80
46366;DHT22;32073;49.166;8.076;2022-08-07T22:57:42;24.40;28.80
46366;DHT22;32073;49.166;8.076;2022-08-07T23:02:06;24.40;28.90
46366;DHT22;32073;49.166;8.076;2022-08-07T23:15:08;24.30;29.00
46366;DHT22;32073;49.166;8.076;2022-08-07T23:24:32;24.30;29.10
46366;DHT22;32073;49.166;8.076;2022-08-07T23:42:31;24.10;29.20
46366;DHT22;32073;49.166;8.076;2022-08-07T23:50:53;24.10;29.00
46366;DHT22;32073;49.166;8.076;2022-08-07T23:55:25;24.00;29.30
